Terminal Aerodrome Forecast
Issued by NWS Twin Cities, MN

Home | Current Version | Previous Version | Graphics & Text | Print | Product List | Glossary On
Versions: 1 2 3 4 5 6 7 8 9 10 11 12 13 14 15 16 17 18
000
FTUS43 KMPX 250520
TAFEAU
TAF
KEAU 250520Z 2506/2606 04008KT P6SM OVC014
     FM251800 07012G18KT P6SM OVC020
     FM252100 06011KT P6SM VCSH OVC017
     FM260200 06008KT 6SM -RA BR OVC011=

USA.gov is the U.S. government's official web portal to all federal, state and local government web resources and services.